Point Pleasant, Pennsylvania
Current Conditions -  °F | °C
As of 1:54 PM on Thursday 18 Dec 2014 (Local Time) from KDYL Reporting Station
Overcast Overcast  
Wind Chill: 29°   Ceiling: 4000
Heat Index: 37°   Visibility: 10mi
Dew Point: 23°   Wind: 13mph
Humidity: 57%   Direction: 300°WNW
Pressure: 29.99"   Gusts: 24mph
Location:  40.42°N, 75.07°W
Report Text: KDYL 181854Z AUTO 30011G21KT 10SM OVC040 03/M05 A2999 RMK AO2 SLP161 T00281050
Loading
Personal Weather Stations






























Interactive Weather Map New forecast layout! Learn more

10-Day Weather Forecast

Advertisements
Track Severe Weather on mobile